Time;durP1;ratioP1;P1;durP2;ratioP2;P2;SDS_P1;SDS_P2;PMS_P1;PMS_P2;Temp;Humidity;BMP_temperature;BMP_pressure;BME280_temperature;BME280_humidity;BME280_pressure;Samples;Min_cycle;Max_cycle;Signal;HPM_P1;HPM_P2
2023/01/26 00:00:31;;;;;;;364.20;20.57;;;-2.60;1.00;-2.40;94276.00;;;;7401732;19;20133;-72
2023/01/26 00:03:05;;;;;;;259.83;18.90;;;-2.60;1.00;-2.30;94273.00;;;;7401863;19;20152;-74
2023/01/26 00:05:39;;;;;;;244.17;17.43;;;-2.60;1.00;-2.30;94252.00;;;;7402541;19;20488;-74
2023/01/26 00:08:12;;;;;;;69.03;12.97;;;-2.70;1.00;-2.30;94270.00;;;;7399969;19;20672;-72
2023/01/26 00:10:49;;;;;;;72.03;12.00;;;-2.70;1.00;-2.40;94237.00;;;;7401771;19;20137;-72
2023/01/26 00:13:22;;;;;;;119.70;13.73;;;-2.70;1.00;-2.30;94262.00;;;;7402466;19;20149;-74
2023/01/26 00:15:56;;;;;;;235.40;16.83;;;-2.70;1.00;-2.30;94240.00;;;;7403438;19;20129;-74
2023/01/26 00:18:23;;;;;;;171.47;17.17;;;-2.60;1.00;-2.30;94249.00;;;;7402575;19;20592;-72
2023/01/26 00:21:01;;;;;;;145.90;14.60;;;-2.60;1.00;-2.30;94252.00;;;;7402665;19;20123;-72
2023/01/26 00:23:32;;;;;;;96.87;12.53;;;-2.60;1.00;-2.20;94243.00;;;;7401278;19;20473;-75
2023/01/26 00:26:12;;;;;;;57.80;13.40;;;-2.60;1.00;-2.20;94230.00;;;;7401075;19;20124;-72
2023/01/26 00:28:46;;;;;;;94.77;13.03;;;-2.60;1.00;-2.20;94243.00;;;;7401213;19;20136;-72
2023/01/26 00:31:26;;;;;;;42.20;10.23;;;-2.60;1.00;-2.20;94216.00;;;;7401456;19;20140;-72
2023/01/26 00:33:55;;;;;;;352.47;21.27;;;-2.60;1.00;-2.10;94219.00;;;;7402682;19;20127;-72
2023/01/26 00:36:28;;;;;;;69.63;10.60;;;-2.60;1.00;-2.20;94213.00;;;;7402922;19;20132;-74
2023/01/26 00:38:55;;;;;;;212.60;17.80;;;-2.70;1.00;-2.20;94218.00;;;;7400936;19;20137;-72
2023/01/26 00:44:21;;;;;;;224.47;17.93;;;-2.70;1.00;-2.10;94214.00;;;;7402065;19;20152;-74
2023/01/26 00:46:48;;;;;;;158.73;14.07;;;-2.70;1.00;-2.30;94209.00;;;;7401948;19;20121;-75
2023/01/26 00:49:22;;;;;;;138.67;14.53;;;-2.70;1.00;-2.30;94222.00;;;;7401782;19;20176;-74
2023/01/26 00:51:49;;;;;;;131.43;15.00;;;-2.80;1.00;-2.40;94218.00;;;;7400692;19;20147;-74
2023/01/26 00:54:22;;;;;;;180.23;15.17;;;-2.70;1.00;-2.20;94210.00;;;;7400305;19;20136;-72
2023/01/26 00:56:57;;;;;;;144.70;13.17;;;-2.80;1.00;-2.30;94211.00;;;;7402084;19;20129;-75
2023/01/26 00:59:31;;;;;;;88.70;13.57;;;-2.90;1.00;-2.50;94211.00;;;;7401695;19;20489;-73
2023/01/26 01:02:04;;;;;;;143.30;12.70;;;-2.90;1.00;-2.50;94179.00;;;;7400313;19;20144;-75
2023/01/26 01:04:31;;;;;;;107.83;13.27;;;-2.90;1.00;-2.40;94190.00;;;;7401255;19;20595;-75
2023/01/26 01:07:12;;;;;;;56.57;12.63;;;-2.90;1.00;-2.50;94204.00;;;;7397632;19;20251;-72
2023/01/26 01:09:39;;;;;;;77.60;11.67;;;-2.90;1.00;-2.50;94212.00;;;;7400061;19;20157;-75
2023/01/26 01:12:12;;;;;;;24.07;9.90;;;-2.90;1.00;-2.50;94210.00;;;;7400205;19;20580;-72
2023/01/26 01:14:46;;;;;;;101.57;12.90;;;-2.80;1.00;-2.50;94211.00;;;;7399224;19;20148;-74
2023/01/26 01:17:13;;;;;;;82.83;11.80;;;-2.80;1.00;-2.50;94203.00;;;;7401691;19;20121;-74
2023/01/26 01:19:46;;;;;;;139.10;13.67;;;-2.80;1.00;-2.20;94211.00;;;;7401209;19;20121;-74
2023/01/26 01:22:13;;;;;;;33.57;10.97;;;-2.90;1.00;-2.50;94200.00;;;;7400931;19;20591;-72
2023/01/26 01:24:46;;;;;;;62.80;11.40;;;-2.90;1.00;-2.50;94204.00;;;;7400473;19;20129;-72
2023/01/26 01:27:13;;;;;;;64.03;11.20;;;-2.90;1.00;-2.50;94200.00;;;;7396860;19;20144;-72
2023/01/26 01:29:49;;;;;;;154.37;13.33;;;-2.90;1.00;-2.40;94177.00;;;;7400799;19;20141;-74
2023/01/26 01:32:17;;;;;;;47.47;11.57;;;-2.90;1.00;-2.50;94197.00;;;;7399940;19;20476;-72
2023/01/26 01:34:51;;;;;;;98.03;13.53;;;-2.90;1.00;-2.50;94186.00;;;;7399301;19;20155;-72
2023/01/26 01:37:18;;;;;;;71.93;12.10;;;-2.90;1.00;-2.50;94189.00;;;;7399818;19;20157;-74
2023/01/26 01:39:51;;;;;;;161.07;13.40;;;-2.90;1.00;-2.40;94190.00;;;;7399022;19;20615;-74
2023/01/26 01:42:25;;;;;;;51.60;14.50;;;-2.90;1.00;-2.40;94158.00;;;;7398576;19;20558;-74
2023/01/26 01:45:42;;;;;;;87.83;12.87;;;-2.90;1.00;-2.40;94185.00;;;;7399831;19;20120;-74
2023/01/26 01:48:34;;;;;;;33.93;12.20;;;-2.90;1.00;-2.50;94142.00;;;;7397182;19;20592;-72
2023/01/26 01:51:18;;;;;;;100.27;12.90;;;-2.80;1.00;-2.50;94172.00;;;;7400766;19;20148;-72
2023/01/26 01:53:54;;;;;;;99.30;14.07;;;-2.80;1.00;-2.50;94177.00;;;;7399665;19;20158;-72
2023/01/26 01:56:30;;;;;;;87.07;12.97;;;-2.80;1.00;-2.50;94178.00;;;;7399702;19;20596;-75
2023/01/26 01:59:01;;;;;;;92.43;12.40;;;-2.80;1.00;-2.40;94147.00;;;;7399726;19;20185;-75
2023/01/26 02:01:36;;;;;;;45.07;10.17;;;-2.80;1.00;-2.40;94168.00;;;;7397987;19;20137;-74
2023/01/26 02:04:10;;;;;;;96.93;11.50;;;-2.80;1.00;-2.50;94166.00;;;;7399627;19;20124;-75
2023/01/26 02:06:55;;;;;;;77.43;11.40;;;-2.80;1.00;-2.50;94178.00;;;;7396113;19;20148;-74
2023/01/26 02:12:32;;;;;;;31.73;9.87;;;-2.90;1.00;-2.60;94161.00;;;;7399217;19;20180;-74
2023/01/26 02:15:07;;;;;;;37.57;9.73;;;-2.90;1.00;-2.60;94167.00;;;;7398642;19;20132;-75
2023/01/26 02:17:41;;;;;;;24.53;9.73;;;-2.90;1.00;-2.50;94152.00;;;;7399611;19;20192;-72
2023/01/26 02:20:42;;;;;;;43.50;10.63;;;-2.90;1.00;-2.40;94163.00;;;;7399390;19;20149;-75
2023/01/26 02:23:49;;;;;;;47.53;11.03;;;-2.80;1.00;-2.40;94180.00;;;;7397755;19;20866;-72
2023/01/26 02:26:29;;;;;;;52.60;10.80;;;-2.80;1.00;-2.40;94171.00;;;;7398993;19;20117;-72
2023/01/26 02:29:01;;;;;;;24.43;10.40;;;-2.80;1.00;-2.50;94161.00;;;;7395772;19;20172;-74
2023/01/26 02:31:37;;;;;;;35.73;11.13;;;-2.80;1.00;-2.40;94167.00;;;;7397109;19;20543;-74
2023/01/26 02:34:04;;;;;;;36.53;10.73;;;-2.80;1.00;-2.40;94134.00;;;;7397333;19;20116;-74
2023/01/26 02:36:37;;;;;;;26.07;10.07;;;-2.80;1.00;-2.50;94156.00;;;;7396685;19;20128;-74
2023/01/26 02:39:38;;;;;;;22.47;9.87;;;-2.80;1.00;-2.50;94140.00;;;;7396034;19;20152;-74
2023/01/26 02:44:57;;;;;;;44.57;10.30;;;-2.80;1.00;-2.50;94152.00;;;;7398093;19;20141;-74
2023/01/26 02:47:30;;;;;;;22.23;9.03;;;-2.80;1.00;-2.50;94132.00;;;;7395957;19;20152;-72
2023/01/26 02:49:59;;;;;;;31.07;11.33;;;-2.80;1.00;-2.40;94148.00;;;;7396445;19;20148;-72
2023/01/26 02:52:32;;;;;;;29.50;11.23;;;-2.80;1.00;-2.40;94153.00;;;;7398265;19;20120;-75
2023/01/26 02:57:58;;;;;;;66.10;12.03;;;-2.80;1.00;-2.50;94149.00;;;;7398107;19;20134;-72
2023/01/26 03:00:40;;;;;;;22.80;9.67;;;-2.80;1.00;-2.50;94141.00;;;;7397498;19;20212;-71
2023/01/26 03:03:40;;;;;;;23.60;10.53;;;-2.80;1.00;-2.50;94144.00;;;;7395153;19;20216;-72
2023/01/26 03:06:26;;;;;;;25.83;9.90;;;-2.80;1.00;-2.50;94151.00;;;;7396115;19;20211;-73
2023/01/26 03:09:00;;;;;;;22.13;9.50;;;-2.80;1.00;-2.50;94142.00;;;;7394375;19;20145;-72
2023/01/26 03:11:40;;;;;;;21.83;9.40;;;-2.80;1.00;-2.50;94143.00;;;;7396675;19;20505;-72
2023/01/26 03:14:14;;;;;;;18.87;9.73;;;-2.80;1.00;-2.50;94130.00;;;;7395886;19;20143;-72
2023/01/26 03:16:48;;;;;;;19.83;9.47;;;-2.80;1.00;-2.50;94147.00;;;;7397770;19;20571;-71
2023/01/26 03:28:03;;;;;;;21.67;9.13;;;-2.80;1.00;-2.50;94127.00;;;;7396734;19;20627;-74
2023/01/26 03:30:30;;;;;;;20.00;8.60;;;-2.80;1.00;-2.50;94134.00;;;;7395172;19;20175;-74
2023/01/26 03:33:04;;;;;;;19.80;8.87;;;-2.80;1.00;-2.50;94118.00;;;;7397223;19;20121;-75
2023/01/26 03:35:31;;;;;;;20.93;9.10;;;-2.90;1.40;-2.50;94126.00;;;;7396916;19;20133;-74
2023/01/26 03:38:05;;;;;;;21.63;9.40;;;-2.90;99.90;-2.50;94091.00;;;;7396548;19;20133;-75
2023/01/26 03:57:40;;;;;;;17.70;7.00;;;-3.00;99.90;-2.80;94117.00;;;;7403859;19;20707;-74
2023/01/26 04:00:08;;;;;;;15.67;7.00;;;-3.10;99.90;-2.70;94103.00;;;;7403040;19;20201;-74
2023/01/26 04:08:26;;;;;;;17.07;8.43;;;-3.10;99.90;-2.60;94096.00;;;;7401083;19;20505;-74
2023/01/26 04:10:54;;;;;;;18.67;8.57;;;-3.10;99.90;-2.70;94093.00;;;;7403025;19;20136;-74
2023/01/26 04:22:00;;;;;;;18.47;9.20;;;-3.10;99.90;-2.60;94079.00;;;;7403210;19;20125;-72
2023/01/26 04:24:34;;;;;;;18.90;8.43;;;-3.20;99.90;-2.60;94051.00;;;;7401632;19;20586;-74
2023/01/26 04:27:07;;;;;;;18.73;8.63;;;-3.20;99.90;-2.80;94076.00;;;;7401669;19;20137;-74
2023/01/26 04:29:34;;;;;;;20.03;9.23;;;-3.20;99.90;-2.80;94087.00;;;;7400133;19;20121;-74
2023/01/26 04:32:03;;;;;;;23.60;8.20;;;-3.20;99.90;-2.80;94089.00;;;;7402994;19;20149;-74
2023/01/26 04:34:37;;;;;;;18.17;8.60;;;-3.20;99.90;-2.80;94079.00;;;;7402439;19;20179;-72
2023/01/26 04:37:05;;;;;;;19.87;8.43;;;-3.20;99.90;-2.80;94083.00;;;;7400780;19;20615;-72
2023/01/26 04:39:39;;;;;;;19.33;9.30;;;-3.20;99.90;-2.80;94085.00;;;;7402327;19;20137;-74
2023/01/26 04:42:13;;;;;;;15.67;8.20;;;-3.20;99.90;-2.80;94089.00;;;;7401935;19;20840;-74
2023/01/26 04:44:40;;;;;;;16.97;8.53;;;-3.20;99.90;-2.80;94090.00;;;;7401946;19;20135;-74
2023/01/26 04:47:14;;;;;;;16.30;9.07;;;-3.10;99.90;-2.80;94078.00;;;;7400715;19;20625;-74
2023/01/26 04:49:41;;;;;;;20.90;10.67;;;-3.10;99.90;-2.70;94069.00;;;;7398250;19;20616;-74
2023/01/26 04:52:15;;;;;;;19.17;8.87;;;-3.00;99.90;-2.70;94075.00;;;;7401201;19;20160;-72
2023/01/26 04:54:49;;;;;;;21.87;10.30;;;-3.10;99.90;-2.60;94092.00;;;;7401759;19;20484;-75
2023/01/26 04:57:19;;;;;;;18.73;9.00;;;-3.00;99.90;-2.70;94084.00;;;;7402056;19;20125;-74
2023/01/26 04:59:52;;;;;;;22.83;9.60;;;-3.00;99.90;-2.80;94092.00;;;;7401788;19;20144;-75
2023/01/26 05:02:26;;;;;;;21.57;9.33;;;-3.00;99.90;-2.90;94067.00;;;;7398017;19;20164;-75
2023/01/26 05:05:00;;;;;;;19.37;9.37;;;-3.00;99.90;-2.80;94074.00;;;;7399880;19;20132;-72
2023/01/26 05:07:40;;;;;;;19.57;10.17;;;-3.00;99.90;-2.70;94081.00;;;;7399742;19;20487;-72
2023/01/26 05:10:14;;;;;;;22.73;8.87;;;-3.00;99.90;-2.80;94086.00;;;;7400231;19;20137;-72
2023/01/26 05:12:48;;;;;;;16.50;8.10;;;-3.00;99.90;-2.70;94082.00;;;;7399575;19;20136;-74
2023/01/26 05:15:22;;;;;;;18.73;9.50;;;-3.00;99.90;-2.80;94079.00;;;;7399808;19;20152;-72
2023/01/26 05:17:59;;;;;;;17.40;9.23;;;-3.00;99.90;-2.70;94085.00;;;;7400304;19;20148;-72
2023/01/26 05:20:34;;;;;;;18.37;8.63;;;-3.00;99.90;-2.70;94054.00;;;;7400842;19;20137;-72
2023/01/26 05:23:01;;;;;;;15.97;8.67;;;-3.00;99.90;-2.70;94079.00;;;;7398746;19;20156;-72
2023/01/26 05:25:35;;;;;;;16.03;8.33;;;-3.10;99.90;-2.70;94077.00;;;;7395759;19;20160;-72
2023/01/26 05:28:11;;;;;;;19.03;8.73;;;-3.10;99.90;-2.80;94076.00;;;;7395493;19;20143;-75
2023/01/26 05:30:38;;;;;;;21.50;8.57;;;-3.10;99.90;-2.80;94062.00;;;;7396966;19;20131;-72
2023/01/26 05:33:13;;;;;;;17.83;8.13;;;-3.10;99.90;-2.90;94066.00;;;;7396868;19;20137;-75
2023/01/26 05:35:40;;;;;;;21.30;8.97;;;-3.10;99.90;-2.90;94058.00;;;;7394596;19;20232;-72
2023/01/26 05:38:14;;;;;;;18.60;9.27;;;-3.00;99.90;-3.00;94081.00;;;;7395961;19;20166;-72
2023/01/26 05:40:48;;;;;;;15.93;8.27;;;-3.10;99.90;-3.20;94081.00;;;;7395122;19;20148;-72
2023/01/26 05:43:21;;;;;;;24.47;9.77;;;-3.00;99.90;-3.00;94058.00;;;;7395976;19;20591;-72
2023/01/26 05:45:57;;;;;;;15.13;8.30;;;-3.10;62.30;-2.90;94079.00;;;;7396809;19;20154;-74
2023/01/26 05:48:32;;;;;;;16.43;8.30;;;-3.10;16.30;-2.90;94081.00;;;;7396203;19;20170;-72
2023/01/26 05:51:05;;;;;;;18.60;8.07;;;-3.20;1.00;-3.10;94086.00;;;;7394215;19;20171;-72
2023/01/26 05:53:39;;;;;;;14.97;7.20;;;-3.20;1.00;-2.90;94076.00;;;;7396723;19;20167;-72
2023/01/26 05:56:22;;;;;;;20.43;9.13;;;-3.20;1.00;-3.10;94081.00;;;;7394790;19;20525;-73
2023/01/26 05:59:03;;;;;;;16.73;7.97;;;-3.20;1.00;-3.20;94079.00;;;;7396182;19;21006;-72
2023/01/26 06:01:38;;;;;;;16.50;8.10;;;-3.20;1.00;-3.20;94078.00;;;;7395271;19;20132;-72
2023/01/26 06:04:11;;;;;;;16.17;8.27;;;-3.20;1.00;-3.20;94059.00;;;;7396223;19;20603;-72
2023/01/26 06:07:04;;;;;;;16.33;8.07;;;-3.30;1.00;-3.20;94073.00;;;;7394799;19;20577;-72
2023/01/26 06:09:39;;;;;;;14.57;7.57;;;-3.30;1.00;-3.10;94079.00;;;;7394111;19;20145;-73
2023/01/26 06:12:20;;;;;;;17.63;7.87;;;-3.30;1.00;-3.10;94063.00;;;;7393918;19;20147;-72
2023/01/26 06:14:56;;;;;;;17.60;7.80;;;-3.30;1.00;-3.10;94052.00;;;;7395304;19;20192;-72
2023/01/26 06:17:23;;;;;;;14.70;8.07;;;-3.30;1.00;-3.10;94081.00;;;;7395599;19;20457;-72
2023/01/26 06:19:57;;;;;;;14.87;7.63;;;-3.30;1.00;-3.10;94084.00;;;;7395906;19;20683;-72
2023/01/26 06:22:30;;;;;;;18.03;8.10;;;-3.30;1.00;-3.00;94052.00;;;;7394659;19;20129;-72
2023/01/26 06:25:04;;;;;;;13.60;6.40;;;-3.30;1.00;-3.10;94048.00;;;;7394891;19;20145;-72
2023/01/26 06:27:33;;;;;;;12.73;6.60;;;-3.30;1.00;-3.10;94087.00;;;;7394683;19;20139;-72
2023/01/26 06:30:10;;;;;;;13.87;7.40;;;-3.30;1.00;-3.10;94084.00;;;;7394022;19;20583;-72
2023/01/26 06:32:37;;;;;;;13.53;7.57;;;-3.30;1.00;-3.10;94078.00;;;;7393973;19;20141;-72
2023/01/26 06:35:11;;;;;;;16.47;7.50;;;-3.40;1.00;-3.10;94082.00;;;;7395074;19;20200;-74
2023/01/26 06:37:48;;;;;;;13.97;7.00;;;-3.40;1.00;-3.10;94077.00;;;;7395170;19;20655;-74
2023/01/26 06:40:22;;;;;;;15.67;7.13;;;-3.40;1.00;-3.10;94038.00;;;;7395171;19;20125;-72
2023/01/26 06:42:50;;;;;;;16.37;7.53;;;-3.50;1.00;-3.00;94053.00;;;;7393211;19;20166;-72
2023/01/26 06:45:24;;;;;;;14.03;6.90;;;-3.40;1.00;-3.00;94067.00;;;;7394671;19;20165;-74
2023/01/26 06:47:54;;;;;;;16.23;8.60;;;-3.50;1.00;-3.10;94050.00;;;;7393866;19;20140;-74
2023/01/26 06:50:32;;;;;;;15.77;7.80;;;-3.40;1.00;-3.10;94078.00;;;;7391549;19;20153;-74
2023/01/26 06:53:24;;;;;;;18.17;6.87;;;-3.40;1.00;-3.10;94056.00;;;;7392228;19;20144;-74
2023/01/26 06:55:57;;;;;;;16.00;6.93;;;-3.40;1.00;-3.10;94076.00;;;;7394884;19;20128;-74
2023/01/26 06:58:24;;;;;;;16.07;7.37;;;-3.40;1.00;-3.10;94066.00;;;;7391823;19;20511;-72
2023/01/26 07:00:59;;;;;;;16.30;7.43;;;-3.40;1.00;-3.10;94064.00;;;;7393723;19;20137;-72
2023/01/26 07:03:33;;;;;;;16.83;7.53;;;-3.40;5.80;-3.20;94087.00;;;;7392467;19;20160;-72
2023/01/26 07:06:10;;;;;;;15.67;7.93;;;-3.30;13.40;-3.20;94085.00;;;;7393141;19;20604;-74
2023/01/26 07:08:44;;;;;;;16.00;7.17;;;-3.30;18.20;-3.10;94097.00;;;;7389044;19;20223;-72
2023/01/26 07:11:12;;;;;;;27.83;7.40;;;-3.30;10.70;-3.10;94088.00;;;;7393224;19;20137;-72
2023/01/26 07:13:47;;;;;;;13.93;6.90;;;-3.40;1.00;-3.00;94095.00;;;;7395841;19;20147;-72
2023/01/26 07:16:20;;;;;;;15.73;7.70;;;-3.40;1.00;-3.00;94091.00;;;;7395228;19;20140;-74
2023/01/26 07:18:55;;;;;;;18.30;7.50;;;-3.40;1.00;-3.10;94107.00;;;;7393844;19;20143;-72
2023/01/26 07:21:23;;;;;;;16.60;7.30;;;-3.40;1.00;-3.30;94104.00;;;;7396104;19;20138;-72
2023/01/26 07:23:56;;;;;;;19.17;8.00;;;-3.40;1.00;-3.30;94096.00;;;;7396624;19;20136;-73
2023/01/26 07:26:23;;;;;;;24.83;8.63;;;-3.40;1.00;-3.20;94101.00;;;;7403917;19;20132;-72
2023/01/26 07:28:57;;;;;;;17.20;7.73;;;-3.40;1.00;-3.10;94102.00;;;;7399504;19;20450;-72
2023/01/26 07:31:26;;;;;;;17.83;7.63;;;-3.40;1.00;-3.20;94102.00;;;;7401284;19;20192;-74
2023/01/26 07:33:59;;;;;;;16.67;8.70;;;-3.40;1.00;-2.70;94097.00;;;;7400586;19;20131;-74
2023/01/26 07:36:26;;;;;;;18.43;7.93;;;-3.40;1.00;-2.80;94069.00;;;;7403362;19;20180;-74
2023/01/26 07:39:00;;;;;;;29.57;8.40;;;-3.40;1.00;-2.90;94077.00;;;;7404496;19;20124;-74
2023/01/26 07:41:35;;;;;;;18.90;8.03;;;-3.40;1.00;-3.10;94088.00;;;;7397389;19;20159;-74
2023/01/26 07:44:06;;;;;;;20.43;8.33;;;-3.30;1.00;-3.10;94101.00;;;;7402945;19;20745;-74
2023/01/26 07:46:40;;;;;;;14.30;7.33;;;-3.20;1.00;-3.00;94097.00;;;;7403033;19;20133;-74
2023/01/26 07:49:13;;;;;;;22.20;9.10;;;-3.30;1.00;-3.10;94101.00;;;;7402268;19;20137;-74
2023/01/26 07:51:47;;;;;;;17.10;7.90;;;-3.20;1.00;-3.10;94101.00;;;;7402886;19;20137;-74
2023/01/26 07:54:21;;;;;;;18.03;8.93;;;-3.20;1.00;-2.90;94093.00;;;;7401932;19;20120;-74
2023/01/26 07:56:55;;;;;;;24.10;9.63;;;-3.20;1.00;-2.80;94091.00;;;;7402548;19;20199;-74
2023/01/26 07:59:23;;;;;;;85.00;11.97;;;-3.10;1.00;-2.70;94091.00;;;;7399808;19;20196;-74
2023/01/26 08:01:56;;;;;;;26.37;9.93;;;-3.20;1.00;-2.70;94089.00;;;;7399878;19;20181;-74
2023/01/26 08:04:29;;;;;;;25.10;9.83;;;-3.10;1.00;-2.60;94086.00;;;;7401144;19;20121;-74
2023/01/26 08:07:10;;;;;;;25.07;9.87;;;-3.00;1.00;-2.50;94069.00;;;;7399167;19;20156;-74
2023/01/26 08:09:44;;;;;;;62.03;12.17;;;-3.00;1.00;-2.50;94096.00;;;;7400249;19;20145;-74
2023/01/26 08:12:11;;;;;;;29.07;11.23;;;-2.90;1.00;-2.50;94096.00;;;;7398616;19;20143;-74
2023/01/26 08:14:45;;;;;;;35.90;11.73;;;-2.90;1.00;-2.60;94078.00;;;;7401773;19;20149;-74
2023/01/26 08:17:19;;;;;;;23.17;10.40;;;-2.90;1.00;-2.50;94107.00;;;;7400344;19;20513;-74
2023/01/26 08:19:52;;;;;;;24.80;9.17;;;-2.80;1.00;-2.40;94089.00;;;;7397228;19;20140;-74
2023/01/26 08:22:19;;;;;;;96.93;12.30;;;-2.80;1.00;-2.50;94092.00;;;;7400409;19;20160;-74
2023/01/26 08:24:47;;;;;;;23.00;10.63;;;-2.80;1.00;-2.40;94097.00;;;;7400713;19;20129;-74
2023/01/26 08:27:22;;;;;;;31.17;11.03;;;-2.80;1.00;-2.50;94079.00;;;;7397964;19;20592;-74
2023/01/26 08:29:57;;;;;;;167.07;18.10;;;-2.70;1.00;-2.30;94098.00;;;;7399374;19;20136;-74
2023/01/26 08:32:30;;;;;;;69.03;12.17;;;-2.70;1.00;-2.60;94100.00;;;;7399986;19;20615;-74
2023/01/26 08:35:05;;;;;;;33.30;11.57;;;-2.70;1.00;-2.70;94094.00;;;;7396859;19;20155;-74
2023/01/26 08:37:32;;;;;;;94.00;14.50;;;-2.70;1.00;-2.50;94105.00;;;;7402227;19;20634;-74
2023/01/26 08:40:07;;;;;;;102.50;13.90;;;-2.70;1.00;-2.40;94103.00;;;;7399990;19;20153;-74
2023/01/26 08:42:35;;;;;;;98.57;13.57;;;-2.70;99.90;-2.50;94107.00;;;;7398280;19;20148;-74
2023/01/26 08:45:09;;;;;;;65.13;13.63;;;-2.80;99.90;-2.50;94108.00;;;;7400211;19;21037;-74
2023/01/26 08:47:42;;;;;;;79.00;13.17;;;-2.70;1.00;-2.60;94103.00;;;;7398624;19;20180;-74
2023/01/26 08:50:17;;;;;;;18.67;9.60;;;-2.70;99.90;-2.50;94102.00;;;;7398262;19;20470;-74
2023/01/26 08:52:50;;;;;;;42.67;11.00;;;-2.80;99.90;-2.40;94094.00;;;;7400923;19;20608;-74
2023/01/26 08:55:17;;;;;;;25.63;11.10;;;-2.80;99.90;-2.30;94100.00;;;;7401720;19;20598;-74
2023/01/26 08:57:53;;;;;;;73.93;14.03;;;-2.80;99.90;-2.50;94098.00;;;;7402263;19;20469;-74
2023/01/26 09:00:27;;;;;;;41.67;10.67;;;-2.70;99.90;-2.40;94097.00;;;;7401339;19;20132;-74
2023/01/26 09:03:03;;;;;;;66.70;13.00;;;-2.70;99.90;-2.40;94103.00;;;;7397578;19;20161;-74
2023/01/26 09:05:39;;;;;;;83.13;13.57;;;-2.70;99.90;-2.50;94090.00;;;;7398930;19;20133;-74
2023/01/26 09:08:15;;;;;;;68.03;13.20;;;-2.60;99.90;-2.30;94106.00;;;;7399078;19;20168;-74
2023/01/26 09:10:49;;;;;;;88.70;13.47;;;-2.70;99.90;-2.40;94085.00;;;;7394017;19;20965;-74
2023/01/26 09:13:23;;;;;;;310.87;18.90;;;-2.60;99.90;-2.30;94099.00;;;;7399857;19;20133;-74
2023/01/26 09:15:50;;;;;;;170.83;17.50;;;-2.70;99.90;-2.30;94087.00;;;;7400907;19;20583;-74
2023/01/26 09:18:24;;;;;;;208.13;15.60;;;-2.80;99.90;-2.40;94075.00;;;;7401203;19;20121;-74
2023/01/26 09:20:51;;;;;;;136.10;17.13;;;-2.70;99.90;-2.30;94066.00;;;;7398976;19;20239;-74
2023/01/26 09:23:19;;;;;;;226.80;17.97;;;-2.80;99.90;-2.60;94098.00;;;;7399924;19;20128;-74
2023/01/26 09:25:52;;;;;;;59.50;14.63;;;-2.70;99.90;-2.50;94101.00;;;;7396808;19;20637;-74
2023/01/26 09:28:27;;;;;;;143.23;14.73;;;-2.70;99.90;-2.40;94093.00;;;;7398007;19;20588;-74
2023/01/26 09:31:10;;;;;;;123.27;14.77;;;-2.70;99.90;-2.30;94105.00;;;;7396746;19;20144;-74
2023/01/26 09:33:43;;;;;;;64.70;12.17;;;-2.70;99.90;-2.60;94091.00;;;;7400187;19;20145;-71
2023/01/26 09:36:12;;;;;;;75.43;13.30;;;-2.70;99.90;-2.40;94069.00;;;;7400819;19;20177;-74
2023/01/26 09:38:46;;;;;;;51.00;11.87;;;-2.60;50.40;-2.30;94100.00;;;;7399561;19;20149;-74
2023/01/26 09:41:36;;;;;;;64.03;13.13;;;-2.70;16.10;-2.30;94105.00;;;;7397626;19;20571;-74
2023/01/26 09:44:19;;;;;;;24.77;10.57;;;-2.60;1.00;-2.20;94099.00;;;;7398376;19;20484;-74
2023/01/26 09:47:23;;;;;;;40.43;11.20;;;-2.60;1.00;-2.50;94089.00;;;;7395897;19;20579;-74
2023/01/26 09:50:18;;;;;;;48.07;11.80;;;-2.50;19.70;-2.50;94100.00;;;;7393583;19;20490;-74
2023/01/26 09:53:08;;;;;;;78.60;13.70;;;-2.50;1.00;-2.80;94067.00;;;;7398225;19;20132;-74
2023/01/26 09:55:38;;;;;;;40.00;12.60;;;-2.50;1.00;-3.00;94088.00;;;;7397319;19;20636;-74
2023/01/26 09:58:38;;;;;;;123.80;13.73;;;-2.50;1.00;-2.70;94107.00;;;;7396236;19;20603;-71
2023/01/26 10:01:26;;;;;;;41.47;11.67;;;-2.60;1.00;-2.50;94109.00;;;;7396686;19;20129;-74
2023/01/26 10:04:38;;;;;;;117.63;14.80;;;-2.60;1.00;-2.70;94104.00;;;;7396649;19;20484;-74
2023/01/26 10:07:14;;;;;;;53.97;10.83;;;-2.60;1.00;-3.00;94100.00;;;;7393740;19;20179;-74
2023/01/26 10:09:56;;;;;;;69.77;12.13;;;-2.70;1.00;-2.60;94092.00;;;;7395537;19;20176;-74
2023/01/26 10:12:33;;;;;;;61.73;13.07;;;-2.70;1.00;-2.30;94093.00;;;;7399359;19;20533;-74
2023/01/26 10:15:20;;;;;;;174.70;16.13;;;-2.60;1.00;-2.30;94099.00;;;;7395115;19;20184;-74
2023/01/26 10:17:55;;;;;;;99.10;12.50;;;-2.50;1.00;-2.40;94091.00;;;;7398918;19;20473;-76
2023/01/26 10:20:41;;;;;;;36.00;12.10;;;-2.50;1.00;-2.60;94084.00;;;;7397546;19;20137;-74
2023/01/26 10:23:29;;;;;;;262.03;19.37;;;-2.50;1.00;-2.50;94090.00;;;;7397912;19;20124;-74
2023/01/26 10:26:19;;;;;;;512.27;24.07;;;-2.40;1.00;-2.20;94094.00;;;;7396423;19;20147;-72
2023/01/26 10:28:52;;;;;;;314.20;20.93;;;-2.50;1.00;-2.40;94091.00;;;;7397741;19;20117;-74
2023/01/26 10:31:31;;;;;;;162.13;14.37;;;-2.50;1.00;-2.10;94090.00;;;;7393856;19;20136;-74
2023/01/26 10:34:16;;;;;;;247.27;17.97;;;-2.50;1.00;-2.20;94082.00;;;;7393260;19;20159;-74
2023/01/26 10:36:45;;;;;;;246.30;17.47;;;-2.40;1.00;-2.00;94087.00;;;;7394281;19;20595;-74
2023/01/26 10:39:19;;;;;;;128.93;13.13;;;-2.40;1.00;-2.40;94091.00;;;;7396812;19;20608;-74
2023/01/26 10:42:02;;;;;;;218.20;15.77;;;-2.40;1.00;-2.20;94092.00;;;;7396968;19;20142;-74
2023/01/26 10:44:39;;;;;;;377.73;20.17;;;-2.40;1.00;-2.30;94088.00;;;;7395245;19;20152;-72
2023/01/26 10:47:16;;;;;;;285.63;17.67;;;-2.50;1.00;-2.10;94095.00;;;;7397776;19;20599;-74
2023/01/26 10:49:49;;;;;;;159.23;14.10;;;-2.50;1.00;-2.10;94093.00;;;;7396756;19;20605;-74
2023/01/26 10:52:24;;;;;;;313.87;17.67;;;-2.50;1.00;-2.00;94052.00;;;;7392776;19;20516;-74
2023/01/26 10:55:19;;;;;;;267.00;16.10;;;-2.40;1.00;-2.00;94065.00;;;;7394185;19;20152;-74
2023/01/26 10:57:52;;;;;;;214.60;15.57;;;-2.50;1.00;-2.10;94075.00;;;;7396057;19;20561;-74
2023/01/26 11:00:27;;;;;;;361.87;20.03;;;-2.50;1.00;-2.10;94079.00;;;;7411718;19;20150;-74
2023/01/26 11:03:17;;;;;;;90.97;9.93;;;-2.60;1.00;-2.30;94045.00;;;;7408501;19;20152;-74
2023/01/26 11:06:16;;;;;;;53.57;10.03;;;-2.70;1.00;-2.40;94070.00;;;;7411669;19;20160;-74
2023/01/26 11:08:56;;;;;;;124.00;12.07;;;-2.60;1.00;-2.80;94063.00;;;;7409571;19;20497;-74
2023/01/26 11:11:29;;;;;;;110.00;12.80;;;-2.60;1.00;-2.70;94080.00;;;;7408246;19;20137;-74
2023/01/26 11:14:12;;;;;;;199.13;14.70;;;-2.60;1.00;-2.80;94073.00;;;;7406604;19;20200;-74
2023/01/26 11:17:21;;;;;;;290.93;18.47;;;-2.70;1.00;-2.50;94072.00;;;;7408243;19;20564;-73
2023/01/26 11:19:48;;;;;;;168.67;14.37;;;-2.70;1.00;-2.30;94072.00;;;;7409571;19;20164;-73
2023/01/26 11:22:51;;;;;;;753.50;30.93;;;-2.70;1.00;-2.50;94059.00;;;;7410411;19;20581;-74
2023/01/26 11:25:32;;;;;;;773.43;34.40;;;-2.60;1.00;-2.30;94047.00;;;;7410140;19;20180;-73
2023/01/26 11:28:31;;;;;;;298.70;18.00;;;-2.60;1.00;-2.40;94029.00;;;;7409700;19;20191;-74
2023/01/26 11:31:35;;;;;;;545.07;25.70;;;-2.70;1.00;-2.20;94039.00;;;;7405853;19;20485;-74
2023/01/26 11:34:52;;;;;;;119.00;11.73;;;-2.70;1.00;-2.20;94045.00;;;;7408701;19;20136;-73
2023/01/26 11:37:39;;;;;;;151.03;13.07;;;-2.60;1.00;-2.50;94048.00;;;;7408864;19;20477;-74
2023/01/26 11:40:36;;;;;;;432.63;23.93;;;-2.60;1.00;-2.90;94046.00;;;;7409603;19;20156;-73
2023/01/26 11:43:37;;;;;;;208.50;14.07;;;-2.60;1.00;-2.80;94043.00;;;;7409878;19;20121;-73
2023/01/26 11:46:30;;;;;;;153.80;12.03;;;-2.60;1.00;-2.70;94048.00;;;;7408040;19;20153;-73
2023/01/26 11:49:40;;;;;;;266.57;16.07;;;-2.60;1.00;-2.50;94008.00;;;;7406687;19;20587;-73
2023/01/26 11:53:23;;;;;;;321.20;16.53;;;-2.60;1.00;-2.50;94040.00;;;;7408149;19;20141;-73
2023/01/26 11:56:30;;;;;;;67.83;10.63;;;-2.60;1.00;-2.70;94034.00;;;;7410801;19;20460;-74
2023/01/26 11:59:23;;;;;;;131.83;11.93;;;-2.60;1.00;-2.70;94035.00;;;;7409611;19;20148;-74
2023/01/26 12:02:27;;;;;;;151.33;11.83;;;-2.70;1.00;-2.70;94022.00;;;;7407778;19;20639;-71
2023/01/26 12:05:01;;;;;;;43.83;8.97;;;-2.70;1.00;-2.30;94025.00;;;;7410480;19;20132;-72
2023/01/26 12:07:55;;;;;;;466.30;22.33;;;-2.60;1.00;-2.20;94022.00;;;;7409312;19;20148;-74
2023/01/26 12:10:41;;;;;;;227.07;14.30;;;-2.60;1.00;-2.50;94022.00;;;;7402028;19;20143;-74
2023/01/26 12:13:40;;;;;;;533.53;24.13;;;-2.60;1.00;-2.40;94021.00;;;;7403359;19;20188;-72
2023/01/26 12:16:28;;;;;;;315.53;17.60;;;-2.70;1.00;-2.50;94016.00;;;;7400790;19;20142;-72
2023/01/26 12:19:35;;;;;;;136.23;11.97;;;-2.70;1.00;-2.30;94011.00;;;;7401995;19;20137;-72
2023/01/26 12:22:33;;;;;;;110.93;9.83;;;-2.70;1.00;-2.40;94004.00;;;;7400719;19;20168;-72